Accueil
METAR-TAF:

METAR-TAF

Aéroports :

Bologne, Italie

Aéroport de Bologne-Borgo Panigale

latitude: 44-32N, longitude: 011-18E, altitude: 36 m

Observation

Le bulletin a été fait il y a 26 minutes, à 09:50 UTC
Vent 7 kt de ouest
Température 6°C
Humidité 75%
Pression 1012 hPa
Visibilité 10 km ou plus
Nuages épars à une hauteur de 2000 ft
Nuages fragmentés à une hauteur de 6000 ft

METAR: LIPE 240950Z 28007KT 9999 SCT020 BKN060 06/02 Q1012

Heure: 11:16 (10:16 UTC)

Prévision

Le bulletin a été fait il y a 5 heures et 16 minutes, à 05:00 UTC
Prévision valable du 24 à 06 UTC au 25 à 06 UTC
Vent 10 kt de nord-est
Visibilité: 4000 m
Nuages fragmentés à une hauteur de 1200 ft
Nuages fragmentés à une hauteur de 5000 ft
brume
Evoluant progressivement
du 24 à 07 UTC au 24 à 09 UTC
Visibilité: 7000 m
Nuages fragmentés à une hauteur de 3000 ft

TAF: LIPE 240500Z 2406/2506 05010KT 4000 BR BKN012 BKN050 BECMG 2407/2409 7000 BKN030

Observations et prévisions météorologiques de plus de 4000 aéroports (messages METAR et TAF).

Les stations disponibles sont représentées par des disques jaunes et rouges sur la carte.

Passer la souris dessus pour voir le nom de la station.

Cliquer dessus pour voir les observations et prévisions météorologiques.

Pour changer de carte: cliquez sur les boutons verts avec une croix noire pour zoomer, sur le bouton vert avec un tiret pour effectuer un zoom arrière, ou sur les flèches vertes pour les cartes adjacentes.


METAR-TAF: